createdAt,value
2022-10-19T00:00:00.124Z,5.7
2022-10-19T00:05:00.123Z,8
2022-10-19T00:10:00.108Z,7
2022-10-19T00:15:00.118Z,7
2022-10-19T00:20:00.112Z,6.1
2022-10-19T00:25:00.124Z,8.2
2022-10-19T00:30:00.112Z,7.4
2022-10-19T00:35:00.098Z,16.3
2022-10-19T00:40:00.210Z,13.1
2022-10-19T00:45:00.111Z,13.1
2022-10-19T00:50:00.103Z,16.8
2022-10-19T00:55:00.115Z,15.8
2022-10-19T01:00:00.178Z,16.2
2022-10-19T01:05:00.100Z,16.3
2022-10-19T01:10:00.145Z,16
2022-10-19T01:15:00.119Z,16
2022-10-19T01:20:00.119Z,19.9
2022-10-19T01:25:00.174Z,19
2022-10-19T01:30:00.099Z,21
2022-10-19T01:35:00.125Z,23.9
2022-10-19T01:40:00.204Z,22.1
2022-10-19T01:45:00.104Z,22.1
2022-10-19T01:50:00.103Z,24.4
2022-10-19T01:55:00.123Z,20.2
2022-10-19T02:00:00.126Z,16.7
2022-10-19T02:05:00.102Z,20.3
2022-10-19T02:10:00.186Z,18.2
2022-10-19T02:15:00.117Z,18.2
2022-10-19T02:20:00.112Z,22.4
2022-10-19T02:25:00.115Z,32.8
2022-10-19T02:30:00.121Z,24.1
2022-10-19T02:35:00.104Z,24.6
2022-10-19T02:40:00.137Z,27.6
2022-10-19T02:45:00.129Z,27.6
2022-10-19T02:50:00.111Z,27.4
2022-10-19T02:55:00.140Z,25.5
2022-10-19T03:00:00.123Z,21.1
2022-10-19T03:05:00.112Z,30.5
2022-10-19T03:10:00.121Z,30.9
2022-10-19T03:15:00.113Z,30.9
2022-10-19T03:20:00.106Z,28
2022-10-19T03:25:00.151Z,29.3
2022-10-19T03:30:00.129Z,32
2022-10-19T03:35:00.116Z,33.6
2022-10-19T03:40:00.124Z,35.7
2022-10-19T03:45:00.105Z,35.7
2022-10-19T03:50:00.101Z,38.8
2022-10-19T03:55:00.108Z,28.5
2022-10-19T04:00:00.140Z,31.8
2022-10-19T04:05:00.105Z,33.9
2022-10-19T04:10:00.146Z,34.9
2022-10-19T04:15:00.103Z,34.9
2022-10-19T04:20:00.129Z,39.4
2022-10-19T04:25:00.144Z,34.4
2022-10-19T04:30:00.149Z,34.6
2022-10-19T04:35:00.110Z,35.6
2022-10-19T04:40:00.143Z,35
2022-10-19T04:45:00.125Z,35
2022-10-19T04:50:00.129Z,35
2022-10-19T04:55:00.123Z,37.5
2022-10-19T05:00:00.119Z,45.1
2022-10-19T05:05:00.144Z,59.7
2022-10-19T05:10:00.111Z,43.7
2022-10-19T05:15:00.113Z,43.7
2022-10-19T05:20:00.116Z,36.1
2022-10-19T05:25:00.134Z,38.8
2022-10-19T05:30:00.114Z,40.9
2022-10-19T05:35:00.139Z,36
2022-10-19T05:40:00.147Z,40.8
2022-10-19T05:45:00.115Z,40.8
2022-10-19T05:50:00.109Z,38.6
2022-10-19T05:55:00.138Z,42
2022-10-19T06:00:00.106Z,44.7
2022-10-19T06:05:00.110Z,43.7
2022-10-19T06:10:00.106Z,50.2
2022-10-19T06:15:00.184Z,50.2
2022-10-19T06:20:00.093Z,54.7
2022-10-19T06:25:00.124Z,58.9
2022-10-19T06:30:00.113Z,68.6
2022-10-19T06:35:00.091Z,75
2022-10-19T06:40:03.553Z,60.8
2022-10-19T06:45:00.103Z,60.8
2022-10-19T06:50:00.124Z,103
2022-10-19T06:55:00.132Z,126.7
2022-10-19T07:00:00.113Z,75.3
2022-10-19T07:05:03.096Z,80.4
2022-10-19T07:10:00.152Z,61.4
2022-10-19T07:15:00.102Z,61.4
2022-10-19T07:20:00.148Z,84.2
2022-10-19T07:25:00.114Z,89.8
2022-10-19T07:30:00.141Z,97.6
2022-10-19T07:35:00.132Z,79
2022-10-19T07:40:00.128Z,107.1
2022-10-19T07:45:00.114Z,107.1
2022-10-19T07:50:00.114Z,58.8
2022-10-19T07:55:00.118Z,70.4
2022-10-19T08:00:00.105Z,68.3
2022-10-19T08:05:02.929Z,78.8
2022-10-19T08:10:00.127Z,68.7
2022-10-19T08:15:00.133Z,68.7
2022-10-19T08:20:00.117Z,92.7
2022-10-19T08:25:00.130Z,56.6
2022-10-19T08:30:00.125Z,62.1
2022-10-19T08:35:00.134Z,52.4
2022-10-19T08:40:00.133Z,45.3
2022-10-19T08:45:00.129Z,45.3
2022-10-19T08:50:00.164Z,60.8
2022-10-19T08:55:00.155Z,63
2022-10-19T09:00:00.115Z,55.6
2022-10-19T09:05:00.112Z,58.5
2022-10-19T09:10:00.132Z,56.5
2022-10-19T09:15:00.113Z,56.5
2022-10-19T09:20:00.115Z,58
2022-10-19T09:25:00.130Z,62.6
2022-10-19T09:30:00.131Z,46.7
2022-10-19T09:35:00.116Z,53.4
2022-10-19T09:40:00.112Z,45.5
2022-10-19T09:45:00.123Z,45.5
2022-10-19T09:50:00.421Z,43.5
2022-10-19T09:55:00.124Z,49.3
2022-10-19T10:00:00.102Z,39.5
2022-10-19T10:05:00.118Z,41.8
2022-10-19T10:10:00.144Z,45.2
2022-10-19T10:15:00.134Z,45.2
2022-10-19T10:20:00.141Z,44.5
2022-10-19T10:25:00.129Z,38.5
2022-10-19T10:30:00.246Z,44.4
2022-10-19T10:35:01.419Z,48
2022-10-19T10:40:01.819Z,42.1
2022-10-19T10:45:00.107Z,42.1
2022-10-19T10:50:00.137Z,44.2
2022-10-19T10:55:00.149Z,43.6
2022-10-19T11:00:00.167Z,38.1
2022-10-19T11:05:00.109Z,41.1
2022-10-19T11:10:00.134Z,32.6
2022-10-19T11:15:00.125Z,32.6
2022-10-19T11:20:00.125Z,35
2022-10-19T11:25:00.159Z,32.8
2022-10-19T11:30:00.121Z,28.8
2022-10-19T11:35:00.103Z,26.1
2022-10-19T11:40:00.122Z,29
2022-10-19T11:45:00.121Z,29
2022-10-19T11:50:00.191Z,26.1
2022-10-19T11:55:00.136Z,25.4
2022-10-19T12:00:03.661Z,25.4
2022-10-19T12:05:00.111Z,20.5
2022-10-19T12:10:00.159Z,25.6
2022-10-19T12:15:00.108Z,25.6
2022-10-19T12:20:00.127Z,22.1
2022-10-19T12:25:00.106Z,22.2
2022-10-19T12:30:00.132Z,18.8
2022-10-19T12:35:00.137Z,22.2
2022-10-19T12:40:00.129Z,22.7
2022-10-19T12:45:00.115Z,22.7
2022-10-19T12:50:00.291Z,25.2
2022-10-19T12:55:00.130Z,24.2
2022-10-19T13:00:00.109Z,26.2
2022-10-19T13:05:00.117Z,23.7
2022-10-19T13:10:00.121Z,22.5
2022-10-19T13:15:00.136Z,22.5
2022-10-19T13:20:00.131Z,20.2
2022-10-19T13:25:02.199Z,17.5
2022-10-19T13:30:00.117Z,23.1
2022-10-19T13:35:00.142Z,21.1
2022-10-19T13:40:00.135Z,20.9
2022-10-19T13:45:00.129Z,20.9
2022-10-19T13:50:00.137Z,21.9
2022-10-19T13:55:00.123Z,24.1
2022-10-19T14:00:00.128Z,27.5
2022-10-19T14:05:00.101Z,21.3
2022-10-19T14:10:00.118Z,22.3
2022-10-19T14:15:00.123Z,22.3
2022-10-19T14:20:00.119Z,20.2
2022-10-19T14:25:00.116Z,20.8
2022-10-19T14:30:00.114Z,20
2022-10-19T14:35:00.199Z,17.7
2022-10-19T14:40:00.129Z,20.1
2022-10-19T14:45:00.106Z,20.1
2022-10-19T14:50:00.131Z,18.7
2022-10-19T14:55:00.110Z,15.1
2022-10-19T15:00:00.123Z,13.9
2022-10-19T15:05:00.101Z,15.2
2022-10-19T15:10:00.134Z,14.3
2022-10-19T15:15:00.105Z,14.3
2022-10-19T15:20:00.216Z,15.4
2022-10-19T15:25:00.099Z,12.3
2022-10-19T15:30:00.191Z,11.3
2022-10-19T15:35:00.122Z,13.1
2022-10-19T15:40:00.170Z,15.4
2022-10-19T15:45:00.098Z,15.4
2022-10-19T15:50:00.115Z,17.5
2022-10-19T15:55:00.122Z,19.8
2022-10-19T16:00:00.122Z,21.5
2022-10-19T16:05:00.195Z,22.9
2022-10-19T16:10:00.115Z,24.4
2022-10-19T16:15:00.106Z,24.4
2022-10-19T16:20:00.109Z,27.2
2022-10-19T16:25:00.148Z,27.1
2022-10-19T16:30:00.107Z,25.1
2022-10-19T16:35:00.100Z,24.9
2022-10-19T16:40:00.258Z,26.5
2022-10-19T16:45:00.104Z,26.5
2022-10-19T16:50:00.154Z,26.6
2022-10-19T16:55:00.123Z,29.1
2022-10-19T17:00:00.148Z,24.5
2022-10-19T17:05:00.101Z,28.7
2022-10-19T17:10:00.255Z,23.5
2022-10-19T17:15:23.772Z,23.5
2022-10-19T17:20:00.123Z,24.5
2022-10-19T17:25:00.108Z,26.5
2022-10-19T17:30:00.119Z,29
2022-10-19T17:35:00.107Z,27.2
2022-10-19T17:40:00.146Z,24.3
2022-10-19T17:45:00.104Z,24.3
2022-10-19T17:50:00.126Z,24.2
2022-10-19T17:55:11.504Z,25.1
2022-10-19T18:00:00.118Z,24.6
2022-10-19T18:05:00.116Z,23.9
2022-10-19T18:10:00.135Z,21.1
2022-10-19T18:15:00.116Z,21.1
2022-10-19T18:20:00.127Z,18.5
2022-10-19T18:25:00.109Z,21.8
2022-10-19T18:30:00.122Z,19.3
2022-10-19T18:35:00.095Z,19.5
2022-10-19T18:40:00.138Z,19.3
2022-10-19T18:45:00.103Z,19.3
2022-10-19T18:50:00.120Z,22
2022-10-19T18:55:00.128Z,16.9
2022-10-19T19:00:00.119Z,18.8
2022-10-19T19:05:00.112Z,15
2022-10-19T19:10:00.153Z,16.1
2022-10-19T19:15:00.118Z,16.1
2022-10-19T19:20:00.118Z,14.7
2022-10-19T19:25:00.122Z,10.6
2022-10-19T19:30:00.119Z,13.7
2022-10-19T19:35:00.100Z,12.8
2022-10-19T19:40:00.120Z,16.2
2022-10-19T19:45:00.105Z,16.2
2022-10-19T19:50:00.110Z,17.3
2022-10-19T20:00:00.117Z,12.9
2022-10-19T20:05:00.113Z,17
2022-10-19T20:10:00.152Z,10.1
2022-10-19T20:15:00.105Z,10.1
2022-10-19T20:20:00.137Z,13.4
2022-10-19T20:25:00.114Z,11.8
2022-10-19T20:30:00.120Z,11.5
2022-10-19T20:35:00.104Z,15.1
2022-10-19T20:40:01.471Z,14.7
2022-10-19T20:45:00.109Z,14.7
2022-10-19T20:50:00.230Z,14.1
2022-10-19T20:55:00.119Z,14.5
2022-10-19T21:00:00.107Z,12.9
2022-10-19T21:05:00.106Z,12.9
2022-10-19T21:10:00.118Z,13.5
2022-10-19T21:15:00.109Z,13.5
2022-10-19T21:20:00.114Z,14.9
2022-10-19T21:25:00.183Z,12.9
2022-10-19T21:30:00.102Z,12
2022-10-19T21:35:00.105Z,13.7
2022-10-19T21:40:00.123Z,13.6
2022-10-19T21:45:06.345Z,13.6
2022-10-19T21:50:00.112Z,11.5
2022-10-19T21:55:00.127Z,16
2022-10-19T22:00:00.116Z,17.6
2022-10-19T22:05:00.104Z,14.3
2022-10-19T22:10:00.124Z,12.6
2022-10-19T22:15:00.106Z,12.6
2022-10-19T22:20:00.134Z,16.1
2022-10-19T22:25:00.138Z,16.1
2022-10-19T22:30:00.117Z,14.4
2022-10-19T22:35:00.103Z,15.9
2022-10-19T22:40:00.164Z,11.7
2022-10-19T22:45:00.101Z,11.7
2022-10-19T22:50:00.114Z,14.7
2022-10-19T22:55:00.112Z,17.7
2022-10-19T23:00:00.113Z,15.3
2022-10-19T23:05:00.131Z,15.2
2022-10-19T23:10:00.126Z,16.3
2022-10-19T23:15:00.119Z,16.3
2022-10-19T23:20:00.114Z,17
2022-10-19T23:25:00.119Z,16.8
2022-10-19T23:30:00.126Z,15.5
2022-10-19T23:35:00.129Z,16.8
2022-10-19T23:40:00.128Z,13.4
2022-10-19T23:45:00.122Z,13.4
2022-10-19T23:50:00.123Z,17.5
2022-10-19T23:55:00.139Z,18.1
